Time;durP1;ratioP1;P1;durP2;ratioP2;P2;SDS_P1;SDS_P2;PMS_P1;PMS_P2;Temp;Humidity;BMP_temperature;BMP_pressure;BME280_temperature;BME280_humidity;BME280_pressure;Samples;Min_cycle;Max_cycle;Signal;HPM_P1;HPM_P2
2021/07/26 00:00:57;;;;;;;;;7.75;5.50;;;;;26.49;47.39;100613.91;5000343;28;51349;-57
2021/07/26 00:03:23;;;;;;;;;4.75;3.75;;;;;26.48;47.55;100612.25;5008177;28;51138;-59
2021/07/26 00:05:55;;;;;;;;;7.50;4.50;;;;;26.47;47.75;100613.34;5006371;28;50964;-59
2021/07/26 00:08:21;;;;;;;;;7.00;6.00;;;;;26.45;47.39;100610.81;4997744;28;51120;-58
2021/07/26 00:10:46;;;;;;;;;5.00;4.00;;;;;26.43;47.39;100613.03;4997877;28;51360;-58
2021/07/26 00:13:11;;;;;;;;;5.00;4.00;;;;;26.41;47.30;100618.03;4996732;28;50992;-58
2021/07/26 00:15:37;;;;;;;;;8.75;6.25;;;;;26.42;47.29;100608.59;4998184;28;55165;-58
2021/07/26 00:18:02;;;;;;;;;6.50;5.25;;;;;26.40;47.67;100604.41;5003265;28;51171;-58
2021/07/26 00:20:27;;;;;;;;;8.00;6.25;;;;;26.38;47.56;100610.25;5001954;28;51084;-58
2021/07/26 00:22:53;;;;;;;;;5.50;5.50;;;;;26.35;47.47;100607.94;4999228;28;51431;-57
2021/07/26 00:25:18;;;;;;;;;4.50;4.50;;;;;26.34;47.75;100611.81;4989508;28;51607;-58
2021/07/26 00:27:44;;;;;;;;;5.25;5.25;;;;;26.33;47.37;100606.53;4997582;28;51169;-58
2021/07/26 00:30:09;;;;;;;;;8.00;4.00;;;;;26.31;47.19;100611.53;4999811;28;51064;-58
2021/07/26 00:32:35;;;;;;;;;6.00;4.75;;;;;26.29;47.64;100597.09;5006505;28;51084;-58
2021/07/26 00:35:00;;;;;;;;;7.75;6.00;;;;;26.29;47.50;100608.19;4996990;28;51223;-58
2021/07/26 00:37:29;;;;;;;;;8.00;6.25;;;;;26.28;47.62;100612.91;4997543;28;51031;-58
2021/07/26 00:39:54;;;;;;;;;6.75;5.75;;;;;26.25;47.58;100602.31;4997360;28;51173;-60
2021/07/26 00:42:20;;;;;;;;;6.75;6.00;;;;;26.27;47.54;100615.97;4997238;28;51444;-59
2021/07/26 00:44:46;;;;;;;;;7.00;5.25;;;;;26.24;47.70;100606.19;4997215;28;51103;-59
2021/07/26 00:47:11;;;;;;;;;6.25;6.25;;;;;26.24;47.30;100602.59;4998433;28;51172;-59
2021/07/26 00:49:37;;;;;;;;;5.50;5.50;;;;;26.24;47.45;100606.19;4998168;28;51106;-59
2021/07/26 00:52:03;;;;;;;;;6.50;6.50;;;;;26.22;47.56;100602.84;4997499;28;50984;-59
2021/07/26 00:54:38;;;;;;;;;7.00;7.00;;;;;26.23;47.32;100600.91;4997598;28;51432;-58
2021/07/26 00:57:05;;;;;;;;;5.00;5.00;;;;;26.22;47.61;100600.09;4997373;28;51563;-58
2021/07/26 00:59:31;;;;;;;;;8.25;8.00;;;;;26.20;47.68;100602.28;4998752;28;51090;-59
2021/07/26 01:01:57;;;;;;;;;8.00;8.00;;;;;26.19;47.44;100601.47;5008842;28;51314;-59
2021/07/26 01:04:23;;;;;;;;;7.00;7.00;;;;;26.20;47.59;100599.53;4991437;28;52058;-58
2021/07/26 01:06:49;;;;;;;;;7.00;7.00;;;;;26.19;47.65;100607.00;4997053;28;51376;-59
2021/07/26 01:09:15;;;;;;;;;7.75;6.00;;;;;26.18;47.50;100598.97;4996996;28;51165;-59
2021/07/26 01:11:44;;;;;;;;;7.75;6.00;;;;;26.17;47.50;100603.69;4997304;28;51209;-58
2021/07/26 01:14:11;;;;;;;;;7.25;7.25;;;;;26.17;47.67;100608.38;4996928;28;51067;-59
2021/07/26 01:16:36;;;;;;;;;8.75;8.75;;;;;26.16;47.37;100602.00;4996948;28;50990;-59
2021/07/26 01:19:03;;;;;;;;;9.00;8.00;;;;;26.15;47.28;100600.31;5003392;28;50920;-61
2021/07/26 01:21:30;;;;;;;;;8.75;8.00;;;;;26.14;47.30;100601.41;4997357;28;51551;-60
2021/07/26 01:23:57;;;;;;;;;10.00;8.50;;;;;26.14;47.36;100604.19;5000526;28;51136;-60
2021/07/26 01:26:24;;;;;;;;;9.00;7.75;;;;;26.14;47.38;100606.97;4996873;28;51079;-59
2021/07/26 01:28:52;;;;;;;;;8.00;7.00;;;;;26.13;47.44;100607.22;4996878;28;51055;-59
2021/07/26 01:31:18;;;;;;;;;8.75;8.25;;;;;26.14;47.41;100608.91;5001794;28;51315;-59
2021/07/26 01:33:45;;;;;;;;;8.50;8.50;;;;;26.13;47.08;100612.78;4999827;28;51179;-59
2021/07/26 01:36:11;;;;;;;;;8.25;6.50;;;;;26.13;47.01;100601.69;4997079;28;51390;-59
2021/07/26 01:38:37;;;;;;;;;8.75;6.75;;;;;26.13;47.18;100615.56;4996204;28;51343;-59
2021/07/26 01:41:11;;;;;;;;;7.00;7.00;;;;;26.12;47.23;100613.88;4999946;28;51303;-59
2021/07/26 01:43:50;;;;;;;;;7.25;7.00;;;;;26.10;47.08;100619.72;4996071;28;52014;-59
2021/07/26 01:46:24;;;;;;;;;4.25;4.25;;;;;26.10;47.26;100618.88;4996212;28;51440;-59
2021/07/26 01:48:55;;;;;;;;;7.75;7.75;;;;;26.11;46.77;100623.31;4996313;28;51167;-59
2021/07/26 01:51:31;;;;;;;;;6.25;5.25;;;;;26.11;46.86;100620.53;5002028;28;51163;-59
2021/07/26 01:53:57;;;;;;;;;8.50;7.00;;;;;26.10;47.14;100618.88;5001645;28;52115;-59
2021/07/26 01:56:23;;;;;;;;;8.00;7.00;;;;;26.09;47.06;100631.91;4996250;28;51002;-59
2021/07/26 01:58:49;;;;;;;;;5.25;5.25;;;;;26.09;47.04;100639.41;4996798;28;51180;-59
2021/07/26 02:01:14;;;;;;;;;7.00;6.75;;;;;26.07;46.52;100628.56;5010421;28;51173;-58
2021/07/26 02:03:39;;;;;;;;;5.25;5.25;;;;;26.07;46.91;100633.28;4995124;28;51746;-59
2021/07/26 02:06:05;;;;;;;;;7.25;7.25;;;;;26.05;46.84;100629.91;4996397;28;51139;-58
2021/07/26 02:08:30;;;;;;;;;6.75;5.00;;;;;26.05;46.78;100636.34;4995924;28;50925;-59
2021/07/26 02:10:55;;;;;;;;;8.75;7.50;;;;;26.05;46.57;100639.13;4997371;28;51111;-58
2021/07/26 02:13:21;;;;;;;;;5.00;4.50;;;;;26.04;46.51;100636.56;4995582;28;53351;-59
2021/07/26 02:15:46;;;;;;;;;7.00;7.00;;;;;26.05;46.56;100643.78;5005550;28;50863;-58
2021/07/26 02:18:11;;;;;;;;;5.75;5.75;;;;;26.04;46.46;100647.69;5005746;28;51475;-58
2021/07/26 02:20:37;;;;;;;;;7.00;6.50;;;;;26.01;47.10;100643.50;5000060;28;50892;-58
2021/07/26 02:23:03;;;;;;;;;5.00;4.25;;;;;26.03;46.69;100646.00;4995287;28;51139;-58
2021/07/26 02:25:29;;;;;;;;;7.75;5.50;;;;;26.03;47.07;100648.78;4995765;28;51381;-58
2021/07/26 02:27:54;;;;;;;;;8.25;6.25;;;;;26.04;46.50;100650.44;4995639;28;51174;-58
2021/07/26 02:30:20;;;;;;;;;7.00;5.00;;;;;26.02;46.93;100655.44;5000753;28;51905;-58
2021/07/26 02:32:45;;;;;;;;;8.50;7.00;;;;;26.03;46.81;100657.09;4994461;28;51222;-57
2021/07/26 02:35:11;;;;;;;;;7.50;6.50;;;;;26.02;46.72;100667.38;4998681;28;51138;-58
2021/07/26 02:37:36;;;;;;;;;4.75;4.75;;;;;26.01;46.27;100660.16;4995936;28;51099;-58
2021/07/26 02:40:02;;;;;;;;;8.00;6.75;;;;;26.02;46.37;100661.00;4995850;28;51277;-58
2021/07/26 02:42:28;;;;;;;;;6.00;6.00;;;;;26.01;46.28;100665.69;4995866;28;51086;-58
2021/07/26 02:44:53;;;;;;;;;8.50;7.00;;;;;26.00;46.60;100660.41;4995763;28;51216;-58
2021/07/26 02:47:18;;;;;;;;;7.50;6.00;;;;;26.01;46.97;100664.88;4995866;28;51068;-58
2021/07/26 02:49:44;;;;;;;;;8.25;7.00;;;;;25.98;46.39;100660.69;4995279;28;51361;-58
2021/07/26 02:52:09;;;;;;;;;7.00;7.00;;;;;25.98;46.41;100659.84;4995841;28;51068;-58
2021/07/26 02:54:34;;;;;;;;;8.25;7.25;;;;;25.97;46.23;100660.97;4994958;28;51440;-58
2021/07/26 02:57:00;;;;;;;;;5.75;5.75;;;;;25.97;46.60;100666.50;4995662;28;51023;-58
2021/07/26 02:59:25;;;;;;;;;7.00;6.50;;;;;25.96;46.57;100656.50;5000157;28;50944;-58
2021/07/26 03:01:51;;;;;;;;;4.25;4.25;;;;;25.96;46.54;100659.28;5003043;28;51136;-58
2021/07/26 03:04:17;;;;;;;;;10.50;8.00;;;;;25.96;46.52;100657.34;4994928;28;51198;-58
2021/07/26 03:06:43;;;;;;;;;6.50;6.25;;;;;25.95;46.65;100654.81;4995422;28;51175;-58
2021/07/26 03:09:08;;;;;;;;;7.75;6.00;;;;;25.96;46.57;100659.28;4995610;28;51040;-58
2021/07/26 03:11:35;;;;;;;;;7.75;6.00;;;;;25.95;46.56;100652.91;4996998;28;51604;-58
2021/07/26 03:14:01;;;;;;;;;8.25;8.25;;;;;25.94;46.53;100658.69;4995785;28;51118;-58
2021/07/26 03:16:26;;;;;;;;;6.25;6.25;;;;;25.94;46.56;100658.69;5000600;28;51128;-58
2021/07/26 03:18:51;;;;;;;;;9.00;7.50;;;;;25.92;46.70;100650.63;4995070;28;51094;-58
2021/07/26 03:21:17;;;;;;;;;8.75;8.25;;;;;25.93;46.50;100651.47;4993437;28;56381;-62
2021/07/26 03:23:42;;;;;;;;;8.50;8.50;;;;;25.90;46.70;100653.66;4996144;28;51196;-58
2021/07/26 03:26:08;;;;;;;;;8.00;7.00;;;;;25.92;46.70;100663.66;5000303;28;51123;-58
2021/07/26 03:28:34;;;;;;;;;8.00;7.50;;;;;25.89;46.53;100663.09;4997264;28;51492;-59
2021/07/26 03:31:00;;;;;;;;;7.25;7.25;;;;;25.88;46.72;100655.88;4994749;28;51091;-59
2021/07/26 03:33:26;;;;;;;;;8.25;6.75;;;;;25.88;46.45;100661.44;4995046;28;50969;-59
2021/07/26 03:35:51;;;;;;;;;7.00;7.00;;;;;25.86;46.32;100666.41;4995006;28;50941;-59
2021/07/26 03:38:23;;;;;;;;;10.00;8.25;;;;;25.87;46.46;100670.03;4993660;28;51042;-59
2021/07/26 03:40:48;;;;;;;;;7.00;7.00;;;;;25.86;46.42;100663.63;4990401;28;51491;-58
2021/07/26 03:43:14;;;;;;;;;9.00;7.75;;;;;25.86;46.63;100665.56;4995119;28;51578;-59
2021/07/26 03:45:40;;;;;;;;;13.50;10.00;;;;;25.85;46.59;100670.28;4994877;28;51201;-58
2021/07/26 03:48:05;;;;;;;;;11.75;10.00;;;;;25.85;46.60;100659.19;4995237;28;50964;-59
2021/07/26 03:50:30;;;;;;;;;8.25;8.00;;;;;25.84;46.67;100671.34;4994283;28;52047;-59
2021/07/26 03:52:57;;;;;;;;;8.25;8.00;;;;;25.84;46.56;100664.97;4994961;28;51065;-59
2021/07/26 03:55:31;;;;;;;;;9.50;8.00;;;;;25.84;46.67;100667.75;4998410;28;51013;-59
2021/07/26 03:57:58;;;;;;;;;10.75;9.50;;;;;25.83;46.61;100669.69;5000558;28;50924;-58
2021/07/26 04:00:25;;;;;;;;;10.75;10.75;;;;;25.83;46.53;100668.84;4994754;28;51162;-59
2021/07/26 04:03:07;;;;;;;;;6.50;6.50;;;;;25.82;46.79;100667.19;4995639;28;51121;-59
2021/07/26 04:05:39;;;;;;;;;10.00;7.75;;;;;25.81;46.64;100671.91;4994720;28;51191;-59
2021/07/26 04:08:18;;;;;;;;;12.75;10.25;;;;;25.81;46.82;100673.84;4999065;28;51060;-59
2021/07/26 04:10:50;;;;;;;;;12.00;9.50;;;;;25.81;46.62;100673.84;4994699;28;52303;-59
2021/07/26 04:13:16;;;;;;;;;11.25;8.75;;;;;25.79;46.74;100676.88;4995353;28;51426;-59
2021/07/26 04:15:45;;;;;;;;;11.75;10.25;;;;;25.80;46.66;100677.72;4994695;28;51152;-59
2021/07/26 04:18:11;;;;;;;;;11.25;9.25;;;;;25.79;46.73;100682.41;4997637;28;51237;-59
2021/07/26 04:20:36;;;;;;;;;9.75;9.75;;;;;25.78;46.78;100677.97;4997230;28;51169;-59
2021/07/26 04:23:02;;;;;;;;;10.25;8.75;;;;;25.78;46.91;100677.13;4997553;28;51471;-59
2021/07/26 04:25:27;;;;;;;;;9.00;9.00;;;;;25.76;46.74;100680.19;4997800;28;51122;-59
2021/07/26 04:27:52;;;;;;;;;10.00;9.00;;;;;25.75;46.77;100684.06;4998232;28;50972;-58
2021/07/26 04:30:18;;;;;;;;;11.00;9.50;;;;;25.75;46.75;100681.28;4997665;28;51291;-58
2021/07/26 04:32:45;;;;;;;;;10.25;9.00;;;;;25.74;47.12;100682.38;4997419;28;51149;-58
2021/07/26 04:35:12;;;;;;;;;7.25;7.25;;;;;25.74;47.04;100679.63;4997417;28;50999;-58
2021/07/26 04:37:37;;;;;;;;;11.00;8.25;;;;;25.74;46.89;100678.75;4997980;28;51196;-59
2021/07/26 04:40:04;;;;;;;;;8.00;8.00;;;;;25.73;47.09;100682.63;4997318;28;51770;-58
2021/07/26 04:42:30;;;;;;;;;9.25;7.25;;;;;25.72;46.83;100679.00;4997603;28;51285;-59
2021/07/26 04:44:55;;;;;;;;;8.25;8.25;;;;;25.73;46.80;100689.00;4997725;28;51200;-59
2021/07/26 04:47:20;;;;;;;;;11.50;8.50;;;;;25.71;46.63;100674.56;4996240;28;51153;-59
2021/07/26 04:49:46;;;;;;;;;8.50;7.75;;;;;25.71;46.83;100682.88;4996924;28;56570;-59
2021/07/26 04:52:13;;;;;;;;;8.75;7.50;;;;;25.71;47.23;100690.38;5000711;28;51322;-59
2021/07/26 04:54:38;;;;;;;;;7.00;7.00;;;;;25.69;46.57;100690.59;5000961;28;51207;-59
2021/07/26 04:57:04;;;;;;;;;9.25;9.25;;;;;25.69;46.98;100695.31;5004211;28;51115;-59
2021/07/26 04:59:29;;;;;;;;;9.00;7.25;;;;;25.69;47.10;100696.16;4998005;28;51630;-59
2021/07/26 05:01:54;;;;;;;;;7.00;7.00;;;;;25.70;46.73;100700.63;4998014;28;51235;-59
2021/07/26 05:04:20;;;;;;;;;6.50;6.50;;;;;25.70;46.85;100706.19;4996659;28;51798;-59
2021/07/26 05:06:46;;;;;;;;;6.50;6.50;;;;;25.68;46.80;100708.34;4997389;28;51089;-58
2021/07/26 05:09:11;;;;;;;;;7.00;7.00;;;;;25.68;46.81;100704.75;5000338;28;51868;-57
2021/07/26 05:11:40;;;;;;;;;7.25;7.25;;;;;25.67;46.77;100708.63;4999012;28;50987;-59
2021/07/26 05:14:05;;;;;;;;;6.50;6.25;;;;;25.67;46.92;100708.63;5002445;28;51154;-58
2021/07/26 05:16:31;;;;;;;;;6.00;6.00;;;;;25.67;47.00;100717.78;4997780;28;51180;-59
2021/07/26 05:18:56;;;;;;;;;7.50;7.25;;;;;25.66;47.05;100718.88;4999423;28;52587;-60
2021/07/26 05:21:24;;;;;;;;;6.00;6.00;;;;;25.65;47.28;100716.38;4996120;28;52987;-59
2021/07/26 05:23:50;;;;;;;;;5.00;5.00;;;;;25.62;47.05;100712.16;4996678;28;51128;-59
2021/07/26 05:26:15;;;;;;;;;6.50;5.75;;;;;25.61;46.91;100716.88;4996686;28;51147;-59
2021/07/26 05:28:40;;;;;;;;;8.50;4.00;;;;;25.60;47.43;100722.69;4996077;28;51293;-59
2021/07/26 05:31:05;;;;;;;;;5.00;5.00;;;;;25.58;47.16;100719.34;4998339;28;51225;-59
2021/07/26 05:33:31;;;;;;;;;7.00;6.00;;;;;25.57;47.23;100714.88;4995899;28;50948;-59
2021/07/26 05:35:56;;;;;;;;;5.25;4.50;;;;;25.56;47.14;100727.06;4994499;28;52650;-59
2021/07/26 05:38:21;;;;;;;;;8.00;7.00;;;;;25.55;47.11;100711.53;5001022;28;51955;-58
2021/07/26 05:40:47;;;;;;;;;9.00;7.00;;;;;25.52;47.21;100720.34;4996491;28;51339;-59
2021/07/26 05:43:14;;;;;;;;;5.00;5.00;;;;;25.49;47.49;100713.41;4998103;28;51071;-58
2021/07/26 05:45:39;;;;;;;;;7.00;6.50;;;;;25.47;47.41;100720.31;5001254;28;51355;-59
2021/07/26 05:48:05;;;;;;;;;7.50;5.50;;;;;25.44;47.49;100726.38;4996220;28;51980;-58
2021/07/26 05:50:31;;;;;;;;;6.75;6.25;;;;;25.41;47.42;100724.09;4995628;28;51126;-58
2021/07/26 05:52:56;;;;;;;;;6.75;6.75;;;;;25.36;47.83;100722.13;4995192;28;51046;-58
2021/07/26 05:55:21;;;;;;;;;8.25;6.50;;;;;25.32;47.71;100727.34;4995753;28;51210;-58
2021/07/26 05:57:47;;;;;;;;;10.00;8.00;;;;;25.28;47.81;100722.56;4995216;28;55575;-58
2021/07/26 06:00:23;;;;;;;;;7.75;7.75;;;;;25.25;47.73;100718.38;4993080;28;51411;-58
2021/07/26 06:02:50;;;;;;;;;9.25;7.00;;;;;25.21;47.78;100711.66;4992800;28;51326;-57
2021/07/26 06:05:15;;;;;;;;;6.25;6.25;;;;;25.17;48.64;100716.03;4994451;28;51081;-58
2021/07/26 06:07:40;;;;;;;;;6.25;4.75;;;;;25.16;48.35;100717.13;4995846;28;50941;-58
2021/07/26 06:10:06;;;;;;;;;8.00;7.75;;;;;25.14;48.38;100721.28;4995394;28;55590;-58
2021/07/26 06:12:31;;;;;;;;;8.50;7.00;;;;;25.12;48.45;100716.00;4995938;28;51234;-59
2021/07/26 06:14:57;;;;;;;;;8.00;6.25;;;;;25.09;48.53;100719.25;4996352;28;51387;-59
2021/07/26 06:17:22;;;;;;;;;10.00;9.50;;;;;25.08;48.54;100725.06;4992223;28;51916;-59
2021/07/26 06:19:47;;;;;;;;;4.25;4.25;;;;;25.06;48.63;100719.78;4991901;28;51125;-58
2021/07/26 06:22:16;;;;;;;;;8.25;7.00;;;;;25.07;48.57;100720.63;4996078;28;51360;-58
2021/07/26 06:24:41;;;;;;;;;10.00;6.75;;;;;25.03;48.56;100711.97;4991496;28;51207;-59
2021/07/26 06:27:06;;;;;;;;;7.25;5.25;;;;;25.06;48.59;100727.25;4988525;28;51903;-56
2021/07/26 06:29:32;;;;;;;;;6.75;5.00;;;;;25.03;48.50;100725.84;4995851;28;51105;-58
2021/07/26 06:31:57;;;;;;;;;6.50;6.50;;;;;25.06;48.63;100730.03;4990419;28;51229;-59
2021/07/26 06:34:23;;;;;;;;;7.00;6.25;;;;;25.05;48.85;100729.19;4994008;28;51269;-58
2021/07/26 06:36:48;;;;;;;;;7.50;6.75;;;;;25.04;48.58;100730.28;4994390;28;51958;-59
2021/07/26 06:39:14;;;;;;;;;5.75;5.75;;;;;25.06;48.74;100725.31;4992833;28;51018;-58
2021/07/26 06:41:40;;;;;;;;;7.50;7.50;;;;;25.07;49.05;100732.53;4990487;28;51248;-58
2021/07/26 06:44:05;;;;;;;;;10.75;7.50;;;;;25.06;48.95;100728.09;4983100;28;51350;-57
2021/07/26 06:46:31;;;;;;;;;5.00;4.75;;;;;25.07;48.95;100729.75;4994174;28;52452;-57
2021/07/26 06:48:56;;;;;;;;;8.50;8.50;;;;;25.08;48.72;100731.44;4994208;28;51139;-58
2021/07/26 06:51:22;;;;;;;;;10.25;8.00;;;;;25.08;48.57;100736.16;4993993;28;51090;-58
2021/07/26 06:53:48;;;;;;;;;7.00;5.75;;;;;25.08;48.75;100738.91;4988371;28;51236;-58
2021/07/26 06:56:14;;;;;;;;;12.00;7.50;;;;;25.06;48.94;100741.94;4993444;28;51757;-58
2021/07/26 06:58:41;;;;;;;;;9.75;8.75;;;;;25.05;48.71;100737.50;4995809;28;51064;-58
2021/07/26 07:01:11;;;;;;;;;9.25;8.00;;;;;25.07;48.72;100745.56;4995648;28;51051;-58
2021/07/26 07:03:41;;;;;;;;;10.50;9.25;;;;;25.06;48.68;100736.41;4996063;28;50990;-58
2021/07/26 07:06:09;;;;;;;;;9.50;8.75;;;;;25.05;48.49;100740.28;4995620;28;51761;-58
2021/07/26 07:08:39;;;;;;;;;6.00;5.50;;;;;25.06;48.94;100741.09;4995528;28;51330;-57
2021/07/26 07:11:15;;;;;;;;;10.75;9.25;;;;;25.05;48.73;100756.91;4995708;28;51119;-58
2021/07/26 07:13:45;;;;;;;;;11.00;9.00;;;;;25.03;48.71;100743.31;4995310;28;51119;-57
2021/07/26 07:16:14;;;;;;;;;7.00;6.75;;;;;25.02;48.84;100744.41;4995728;28;51338;-57
2021/07/26 07:18:39;;;;;;;;;8.75;8.75;;;;;25.01;48.87;100755.69;4995278;28;51033;-57
2021/07/26 07:21:05;;;;;;;;;8.75;8.75;;;;;25.01;49.17;100759.34;4995421;28;51461;-57
2021/07/26 07:23:31;;;;;;;;;7.25;7.00;;;;;25.02;49.33;100771.28;4995189;28;51253;-57
2021/07/26 07:25:57;;;;;;;;;10.25;8.00;;;;;25.02;49.27;100765.72;4995211;28;51991;-57
2021/07/26 07:28:23;;;;;;;;;8.50;8.25;;;;;25.02;49.58;100762.97;4995591;28;51079;-57
2021/07/26 07:30:48;;;;;;;;;5.75;5.75;;;;;25.02;49.58;100768.50;4995416;28;51386;-57
2021/07/26 07:33:13;;;;;;;;;7.00;6.00;;;;;25.02;49.86;100771.28;4995220;28;50968;-57
2021/07/26 07:35:39;;;;;;;;;9.25;8.50;;;;;25.02;49.75;100774.03;4995121;28;51219;-61
2021/07/26 07:38:04;;;;;;;;;11.00;8.75;;;;;25.02;50.03;100774.88;4995225;28;51157;-57
2021/07/26 07:40:30;;;;;;;;;8.75;6.50;;;;;25.02;49.80;100774.03;4995503;28;51083;-57
2021/07/26 07:42:55;;;;;;;;;6.50;6.00;;;;;25.01;50.33;100775.97;4995240;28;51043;-58
2021/07/26 07:45:20;;;;;;;;;9.50;7.00;;;;;25.02;50.24;100774.03;4994945;28;51807;-58
2021/07/26 07:47:46;;;;;;;;;10.25;7.25;;;;;25.02;49.96;100774.88;4995042;28;51056;-57
2021/07/26 07:50:14;;;;;;;;;9.25;8.75;;;;;25.02;50.25;100774.03;4994921;28;51040;-58
2021/07/26 07:52:40;;;;;;;;;8.50;7.25;;;;;25.01;50.54;100773.22;4997490;28;51349;-57
2021/07/26 07:55:07;;;;;;;;;7.75;7.50;;;;;25.02;50.29;100776.81;4998220;28;51132;-57
2021/07/26 07:57:35;;;;;;;;;9.25;7.50;;;;;25.03;50.51;100772.94;4998840;28;51065;-57
2021/07/26 08:00:02;;;;;;;;;10.25;9.50;;;;;25.00;50.35;100777.00;4998384;28;51027;-58
2021/07/26 08:02:28;;;;;;;;;8.00;7.25;;;;;25.00;50.65;100782.56;4998986;28;50957;-57
2021/07/26 08:04:53;;;;;;;;;10.00;9.00;;;;;25.01;50.55;100784.28;4997924;28;61042;-58
2021/07/26 08:07:18;;;;;;;;;10.00;9.00;;;;;25.00;50.79;100788.09;4997984;28;51004;-58
2021/07/26 08:09:44;;;;;;;;;10.00;9.25;;;;;24.98;50.47;100784.75;4998513;28;51408;-57
2021/07/26 08:12:09;;;;;;;;;10.00;9.75;;;;;24.97;50.79;100788.63;4998322;28;51370;-57
2021/07/26 08:14:34;;;;;;;;;12.00;9.25;;;;;24.95;50.53;100790.81;4998288;28;51024;-58
2021/07/26 08:17:01;;;;;;;;;13.75;13.25;;;;;24.96;50.78;100788.88;4998246;28;50929;-57
2021/07/26 08:19:27;;;;;;;;;10.75;8.25;;;;;24.96;50.60;100795.25;4998377;28;51258;-58
2021/07/26 08:21:52;;;;;;;;;11.50;11.00;;;;;24.95;50.68;100796.34;4998358;28;51109;-57
2021/07/26 08:24:17;;;;;;;;;16.00;11.75;;;;;24.95;50.58;100792.75;4997515;28;50983;-58
2021/07/26 08:26:43;;;;;;;;;11.75;10.75;;;;;24.95;50.51;100798.28;4998105;28;51103;-58
2021/07/26 08:29:08;;;;;;;;;13.75;10.50;;;;;24.95;50.53;100799.13;4996147;28;50979;-58
2021/07/26 08:31:33;;;;;;;;;15.75;11.25;;;;;24.94;50.75;100797.44;4993988;28;51278;-58
2021/07/26 08:33:59;;;;;;;;;13.25;11.00;;;;;24.94;50.55;100799.38;4989630;28;54189;-57
2021/07/26 08:36:24;;;;;;;;;16.25;12.50;;;;;24.93;50.90;100803.25;4995614;28;51277;-58
2021/07/26 08:38:49;;;;;;;;;13.00;11.75;;;;;24.88;50.91;100801.22;4996760;28;51214;-57
2021/07/26 08:41:15;;;;;;;;;16.75;15.25;;;;;24.83;51.06;100797.53;4997428;28;51002;-58
2021/07/26 08:43:41;;;;;;;;;15.00;14.00;;;;;24.78;51.15;100801.06;4994011;28;51887;-58
2021/07/26 08:46:08;;;;;;;;;16.50;12.25;;;;;24.74;51.06;100803.50;4994986;28;51206;-58
2021/07/26 08:48:34;;;;;;;;;14.00;13.75;;;;;24.64;51.60;100800.56;4993615;28;51138;-63
2021/07/26 08:51:02;;;;;;;;;14.25;12.50;;;;;24.33;51.83;100796.41;4992782;28;51333;-59
2021/07/26 08:53:29;;;;;;;;;16.50;13.50;;;;;24.02;52.26;100807.97;4991667;28;52026;-60
2021/07/26 08:55:54;;;;;;;;;13.00;11.00;;;;;23.72;52.85;100805.41;4990072;28;50982;-59
2021/07/26 08:58:20;;;;;;;;;14.00;13.75;;;;;23.46;52.78;100804.03;4992522;28;51273;-59
2021/07/26 09:00:46;;;;;;;;;13.75;11.00;;;;;23.24;53.97;100807.41;4996566;28;51103;-59
2021/07/26 09:03:11;;;;;;;;;14.00;10.00;;;;;23.07;54.08;100805.63;4987462;28;52009;-60
2021/07/26 09:05:37;;;;;;;;;15.00;12.00;;;;;22.97;54.27;100814.50;4992573;28;54338;-59
2021/07/26 09:08:03;;;;;;;;;13.25;10.00;;;;;22.83;55.14;100808.34;4993530;28;51407;-58
2021/07/26 09:10:33;;;;;;;;;17.75;12.25;;;;;22.71;55.40;100819.34;4993312;28;51262;-59
2021/07/26 09:12:58;;;;;;;;;18.50;14.75;;;;;22.66;55.85;100812.88;4987543;28;51742;-61
2021/07/26 09:15:30;;;;;;;;;12.75;12.25;;;;;22.64;55.98;100812.28;4994477;28;51422;-60
2021/07/26 09:18:07;;;;;;;;;16.75;12.25;;;;;22.60;55.85;100816.56;5008832;28;51177;-61
2021/07/26 09:20:39;;;;;;;;;12.50;12.00;;;;;22.55;56.07;100808.16;4989196;28;51160;-59
2021/07/26 09:23:16;;;;;;;;;15.00;12.00;;;;;22.54;56.14;100817.53;4994321;28;51851;-61
2021/07/26 09:25:43;;;;;;;;;12.00;10.75;;;;;22.48;56.78;100814.63;4991446;28;51332;-61
2021/07/26 09:28:11;;;;;;;;;15.00;12.50;;;;;22.41;56.82;100819.44;4990655;28;51334;-60
2021/07/26 09:30:53;;;;;;;;;19.50;17.75;;;;;22.36;57.16;100805.47;4996561;28;51685;-60
2021/07/26 09:33:21;;;;;;;;;14.00;10.00;;;;;22.28;57.35;100816.84;4994060;28;51236;-60
2021/07/26 09:36:13;;;;;;;;;15.00;13.25;;;;;22.22;57.70;100817.81;4992097;28;51488;-64
2021/07/26 09:39:04;;;;;;;;;20.25;15.75;;;;;22.17;57.48;100823.16;4990398;28;51206;-61
2021/07/26 09:41:47;;;;;;;;;15.00;13.25;;;;;22.11;57.29;100819.44;4989217;28;51460;-59
2021/07/26 09:44:13;;;;;;;;;19.50;13.50;;;;;22.05;58.21;100819.50;4992145;28;51281;-59
2021/07/26 09:46:39;;;;;;;;;15.75;13.75;;;;;21.99;58.86;100831.44;4990147;28;51438;-60
2021/07/26 09:49:14;;;;;;;;;11.25;11.25;;;;;21.92;59.67;100823.28;4986440;28;51101;-59
2021/07/26 09:51:40;;;;;;;;;14.00;12.25;;;;;21.87;60.20;100821.19;4995006;28;51200;-60
2021/07/26 09:54:07;;;;;;;;;14.50;12.50;;;;;21.85;60.10;100817.00;4994179;28;51710;-60
2021/07/26 09:56:33;;;;;;;;;19.00;16.75;;;;;21.88;60.40;100825.66;4992963;28;54196;-59
2021/07/26 09:59:01;;;;;;;;;14.75;13.50;;;;;21.85;60.98;100820.59;5010013;28;51163;-60
2021/07/26 10:01:26;;;;;;;;;12.75;12.50;;;;;21.85;60.63;100819.75;4994496;28;51053;-60
2021/07/26 10:03:52;;;;;;;;;13.50;11.50;;;;;21.83;60.74;100827.44;4990650;28;51307;-59
2021/07/26 10:06:18;;;;;;;;;15.25;13.25;;;;;21.80;60.71;100825.97;4995139;28;51203;-59
2021/07/26 10:08:47;;;;;;;;;14.75;11.75;;;;;21.77;60.84;100831.09;4995476;28;50992;-60
2021/07/26 10:11:13;;;;;;;;;14.50;11.75;;;;;21.77;60.39;100829.19;4990362;28;51311;-60
2021/07/26 10:13:41;;;;;;;;;14.00;14.00;;;;;21.78;60.77;100830.88;4993129;28;51806;-60
2021/07/26 10:16:12;;;;;;;;;17.00;12.50;;;;;21.78;61.14;100830.88;4990345;28;51147;-60
2021/07/26 10:18:37;;;;;;;;;17.50;13.25;;;;;21.84;60.66;100834.63;4994307;28;51201;-60
2021/07/26 10:21:04;;;;;;;;;22.25;17.75;;;;;21.88;60.82;100830.31;4994358;28;51297;-59
2021/07/26 10:23:42;;;;;;;;;15.75;14.75;;;;;21.94;60.58;100829.41;4979867;28;51029;-60
2021/07/26 10:26:11;;;;;;;;;14.75;9.75;;;;;22.03;60.71;100821.66;4985596;28;51112;-60
2021/07/26 10:28:40;;;;;;;;;20.00;15.75;;;;;22.10;60.11;100834.31;4988163;28;51299;-60
2021/07/26 10:31:27;;;;;;;;;15.25;14.50;;;;;22.21;60.35;100829.09;4986712;28;51248;-60
2021/07/26 10:34:13;;;;;;;;;19.50;15.00;;;;;22.33;59.74;100828.03;4978141;28;51122;-58
2021/07/26 10:36:42;;;;;;;;;19.00;18.50;;;;;22.41;59.43;100827.72;4993422;28;51690;-58
2021/07/26 10:39:08;;;;;;;;;16.25;13.50;;;;;22.48;59.29;100824.81;4983013;28;51246;-60
2021/07/26 10:41:42;;;;;;;;;16.25;15.50;;;;;22.53;59.56;100826.91;4985061;28;51204;-61
2021/07/26 10:44:28;;;;;;;;;17.25;13.25;;;;;22.56;59.00;100829.19;4993974;28;51056;-60
2021/07/26 10:46:53;;;;;;;;;17.75;15.25;;;;;22.58;58.53;100829.78;4982739;28;51473;-60
2021/07/26 10:49:44;;;;;;;;;18.25;16.75;;;;;22.63;58.65;100829.91;4994637;28;51446;-60
2021/07/26 10:52:29;;;;;;;;;15.50;13.25;;;;;22.68;58.17;100821.75;4981891;28;51199;-59
2021/07/26 10:54:57;;;;;;;;;16.00;16.00;;;;;22.70;58.44;100820.44;4978386;28;52680;-59
2021/07/26 10:57:49;;;;;;;;;16.25;14.50;;;;;22.68;58.00;100819.00;4989913;28;51681;-58
2021/07/26 11:00:18;;;;;;;;;17.00;12.75;;;;;22.66;58.14;100819.22;4991135;28;51390;-61
2021/07/26 11:02:46;;;;;;;;;15.50;15.25;;;;;22.66;58.21;100832.19;4993884;28;51315;-59
2021/07/26 11:05:24;;;;;;;;;14.50;12.75;;;;;22.65;57.80;100827.75;4990765;28;51768;-59
2021/07/26 11:08:17;;;;;;;;;15.00;13.00;;;;;22.68;57.41;100819.00;4992836;28;51328;-59
2021/07/26 11:10:46;;;;;;;;;17.00;13.25;;;;;22.74;57.66;100812.53;4992891;28;51012;-59
2021/07/26 11:13:13;;;;;;;;;14.25;13.25;;;;;22.83;57.53;100822.16;4985813;28;51377;-59
2021/07/26 11:15:49;;;;;;;;;16.00;15.50;;;;;22.89;56.74;100810.16;4992854;28;52516;-62
2021/07/26 11:18:15;;;;;;;;;18.00;15.00;;;;;22.94;56.83;100813.06;4994197;28;51148;-60
2021/07/26 11:21:00;;;;;;;;;13.00;11.00;;;;;22.99;56.52;100818.69;4993038;28;50974;-59